sensor_id;sensor_type;location;lat;lon;timestamp;P1;durP1;ratioP1;P2;durP2;ratioP2
10617;SDS011;5356;43.526;26.534;2023-11-19T00:02:13;6.10;;;3.00;;
10617;SDS011;5356;43.526;26.534;2023-11-19T00:04:38;4.70;;;2.58;;
10617;SDS011;5356;43.526;26.534;2023-11-19T00:07:04;7.85;;;4.28;;
10617;SDS011;5356;43.526;26.534;2023-11-19T00:09:32;7.82;;;3.35;;
10617;SDS011;5356;43.526;26.534;2023-11-19T00:12:02;4.68;;;3.17;;
10617;SDS011;5356;43.526;26.534;2023-11-19T00:14:31;4.10;;;2.63;;
10617;SDS011;5356;43.526;26.534;2023-11-19T00:16:56;4.93;;;3.08;;
10617;SDS011;5356;43.526;26.534;2023-11-19T00:19:22;6.40;;;2.97;;
10617;SDS011;5356;43.526;26.534;2023-11-19T00:21:47;4.65;;;2.55;;
10617;SDS011;5356;43.526;26.534;2023-11-19T00:24:13;5.78;;;2.85;;
10617;SDS011;5356;43.526;26.534;2023-11-19T00:26:41;4.90;;;2.53;;
10617;SDS011;5356;43.526;26.534;2023-11-19T00:29:07;3.53;;;2.40;;
10617;SDS011;5356;43.526;26.534;2023-11-19T00:31:32;6.18;;;2.25;;
10617;SDS011;5356;43.526;26.534;2023-11-19T00:33:58;4.72;;;2.65;;
10617;SDS011;5356;43.526;26.534;2023-11-19T00:36:23;5.88;;;2.40;;
10617;SDS011;5356;43.526;26.534;2023-11-19T00:38:49;4.53;;;2.47;;
10617;SDS011;5356;43.526;26.534;2023-11-19T00:41:15;5.45;;;2.80;;
10617;SDS011;5356;43.526;26.534;2023-11-19T00:43:42;5.43;;;2.72;;
10617;SDS011;5356;43.526;26.534;2023-11-19T00:46:07;6.05;;;2.97;;
10617;SDS011;5356;43.526;26.534;2023-11-19T00:48:33;5.57;;;2.88;;
10617;SDS011;5356;43.526;26.534;2023-11-19T00:50:59;5.40;;;2.92;;
10617;SDS011;5356;43.526;26.534;2023-11-19T00:53:24;7.78;;;3.95;;
10617;SDS011;5356;43.526;26.534;2023-11-19T00:55:50;7.43;;;3.90;;
10617;SDS011;5356;43.526;26.534;2023-11-19T00:58:15;8.70;;;4.18;;
10617;SDS011;5356;43.526;26.534;2023-11-19T01:00:42;5.70;;;3.67;;
10617;SDS011;5356;43.526;26.534;2023-11-19T01:03:08;7.47;;;3.17;;
10617;SDS011;5356;43.526;26.534;2023-11-19T01:05:33;5.75;;;2.92;;
10617;SDS011;5356;43.526;26.534;2023-11-19T01:07:59;6.10;;;3.15;;
10617;SDS011;5356;43.526;26.534;2023-11-19T01:10:24;5.57;;;3.10;;
10617;SDS011;5356;43.526;26.534;2023-11-19T01:12:50;6.68;;;3.58;;
10617;SDS011;5356;43.526;26.534;2023-11-19T01:15:17;6.88;;;3.25;;
10617;SDS011;5356;43.526;26.534;2023-11-19T01:17:43;5.43;;;2.63;;
10617;SDS011;5356;43.526;26.534;2023-11-19T01:20:09;6.55;;;3.28;;
10617;SDS011;5356;43.526;26.534;2023-11-19T01:22:38;4.30;;;2.63;;
10617;SDS011;5356;43.526;26.534;2023-11-19T01:25:03;6.22;;;2.97;;
10617;SDS011;5356;43.526;26.534;2023-11-19T01:27:30;6.90;;;3.75;;
10617;SDS011;5356;43.526;26.534;2023-11-19T01:29:56;6.13;;;3.47;;
10617;SDS011;5356;43.526;26.534;2023-11-19T01:32:21;7.57;;;3.85;;
10617;SDS011;5356;43.526;26.534;2023-11-19T01:34:49;4.05;;;2.85;;
10617;SDS011;5356;43.526;26.534;2023-11-19T01:37:15;7.40;;;3.88;;
10617;SDS011;5356;43.526;26.534;2023-11-19T01:39:43;8.57;;;3.28;;
10617;SDS011;5356;43.526;26.534;2023-11-19T01:42:09;6.72;;;4.05;;
10617;SDS011;5356;43.526;26.534;2023-11-19T01:44:34;7.78;;;4.03;;
10617;SDS011;5356;43.526;26.534;2023-11-19T01:47:00;8.65;;;4.75;;
10617;SDS011;5356;43.526;26.534;2023-11-19T01:49:26;10.60;;;5.43;;
10617;SDS011;5356;43.526;26.534;2023-11-19T01:51:51;8.25;;;4.68;;
10617;SDS011;5356;43.526;26.534;2023-11-19T01:54:17;11.45;;;6.10;;
10617;SDS011;5356;43.526;26.534;2023-11-19T01:56:42;11.88;;;5.53;;
10617;SDS011;5356;43.526;26.534;2023-11-19T01:59:09;7.80;;;4.85;;
10617;SDS011;5356;43.526;26.534;2023-11-19T02:01:38;8.52;;;4.10;;
10617;SDS011;5356;43.526;26.534;2023-11-19T02:04:05;6.75;;;4.32;;
10617;SDS011;5356;43.526;26.534;2023-11-19T02:06:32;8.05;;;4.13;;
10617;SDS011;5356;43.526;26.534;2023-11-19T02:08:59;8.20;;;4.55;;
10617;SDS011;5356;43.526;26.534;2023-11-19T02:11:25;6.43;;;3.38;;
10617;SDS011;5356;43.526;26.534;2023-11-19T02:13:55;5.00;;;2.88;;
10617;SDS011;5356;43.526;26.534;2023-11-19T02:16:21;7.00;;;3.65;;
10617;SDS011;5356;43.526;26.534;2023-11-19T02:18:46;8.65;;;4.03;;
10617;SDS011;5356;43.526;26.534;2023-11-19T02:21:13;5.75;;;3.20;;
10617;SDS011;5356;43.526;26.534;2023-11-19T02:23:40;6.72;;;3.42;;
10617;SDS011;5356;43.526;26.534;2023-11-19T02:28:39;7.63;;;3.97;;
10617;SDS011;5356;43.526;26.534;2023-11-19T02:31:05;7.65;;;3.40;;
10617;SDS011;5356;43.526;26.534;2023-11-19T02:33:34;6.28;;;3.17;;
10617;SDS011;5356;43.526;26.534;2023-11-19T02:36:01;7.32;;;3.75;;
10617;SDS011;5356;43.526;26.534;2023-11-19T02:38:27;5.95;;;3.33;;
10617;SDS011;5356;43.526;26.534;2023-11-19T02:40:52;7.15;;;3.50;;
10617;SDS011;5356;43.526;26.534;2023-11-19T02:43:18;8.50;;;4.35;;
10617;SDS011;5356;43.526;26.534;2023-11-19T02:45:44;6.32;;;3.60;;
10617;SDS011;5356;43.526;26.534;2023-11-19T02:48:10;8.63;;;4.68;;
10617;SDS011;5356;43.526;26.534;2023-11-19T02:50:36;9.95;;;4.78;;
10617;SDS011;5356;43.526;26.534;2023-11-19T02:53:01;11.65;;;4.60;;
10617;SDS011;5356;43.526;26.534;2023-11-19T02:55:27;8.57;;;4.38;;
10617;SDS011;5356;43.526;26.534;2023-11-19T02:57:55;7.18;;;3.90;;
10617;SDS011;5356;43.526;26.534;2023-11-19T03:00:24;8.70;;;4.93;;
10617;SDS011;5356;43.526;26.534;2023-11-19T03:02:53;7.47;;;3.60;;
10617;SDS011;5356;43.526;26.534;2023-11-19T03:05:25;8.70;;;4.53;;
10617;SDS011;5356;43.526;26.534;2023-11-19T03:07:52;8.88;;;4.72;;
10617;SDS011;5356;43.526;26.534;2023-11-19T03:10:17;7.38;;;4.70;;
10617;SDS011;5356;43.526;26.534;2023-11-19T03:12:44;8.70;;;4.88;;
10617;SDS011;5356;43.526;26.534;2023-11-19T03:15:10;10.02;;;4.57;;
10617;SDS011;5356;43.526;26.534;2023-11-19T03:17:38;9.85;;;4.63;;
10617;SDS011;5356;43.526;26.534;2023-11-19T03:20:05;8.35;;;4.18;;
10617;SDS011;5356;43.526;26.534;2023-11-19T03:22:34;7.97;;;4.38;;
10617;SDS011;5356;43.526;26.534;2023-11-19T03:25:01;8.77;;;4.97;;
10617;SDS011;5356;43.526;26.534;2023-11-19T03:27:27;8.48;;;4.30;;
10617;SDS011;5356;43.526;26.534;2023-11-19T03:29:52;9.65;;;5.05;;
10617;SDS011;5356;43.526;26.534;2023-11-19T03:32:17;11.95;;;5.95;;
10617;SDS011;5356;43.526;26.534;2023-11-19T03:34:43;14.07;;;6.50;;
10617;SDS011;5356;43.526;26.534;2023-11-19T03:37:08;17.30;;;7.68;;
10617;SDS011;5356;43.526;26.534;2023-11-19T03:39:34;19.42;;;7.50;;
10617;SDS011;5356;43.526;26.534;2023-11-19T03:41:59;14.90;;;6.60;;
10617;SDS011;5356;43.526;26.534;2023-11-19T03:44:25;15.82;;;6.80;;
10617;SDS011;5356;43.526;26.534;2023-11-19T03:46:52;16.48;;;6.68;;
10617;SDS011;5356;43.526;26.534;2023-11-19T03:49:17;18.48;;;7.85;;
10617;SDS011;5356;43.526;26.534;2023-11-19T03:51:43;17.70;;;7.15;;
10617;SDS011;5356;43.526;26.534;2023-11-19T03:54:08;15.52;;;6.85;;
10617;SDS011;5356;43.526;26.534;2023-11-19T03:56:34;14.10;;;7.07;;
10617;SDS011;5356;43.526;26.534;2023-11-19T03:58:59;16.55;;;7.55;;
10617;SDS011;5356;43.526;26.534;2023-11-19T04:01:25;11.30;;;5.78;;
10617;SDS011;5356;43.526;26.534;2023-11-19T04:03:50;11.35;;;6.72;;
10617;SDS011;5356;43.526;26.534;2023-11-19T04:06:15;15.02;;;6.80;;
10617;SDS011;5356;43.526;26.534;2023-11-19T04:08:41;12.98;;;5.68;;
10617;SDS011;5356;43.526;26.534;2023-11-19T04:11:07;9.73;;;5.15;;
10617;SDS011;5356;43.526;26.534;2023-11-19T04:13:33;7.68;;;4.28;;
10617;SDS011;5356;43.526;26.534;2023-11-19T04:15:59;9.73;;;6.22;;
10617;SDS011;5356;43.526;26.534;2023-11-19T04:18:25;10.98;;;5.03;;
10617;SDS011;5356;43.526;26.534;2023-11-19T04:20:51;7.78;;;4.97;;
10617;SDS011;5356;43.526;26.534;2023-11-19T04:23:17;9.23;;;5.95;;
10617;SDS011;5356;43.526;26.534;2023-11-19T04:25:43;12.70;;;5.85;;
10617;SDS011;5356;43.526;26.534;2023-11-19T04:28:08;14.50;;;9.40;;
10617;SDS011;5356;43.526;26.534;2023-11-19T04:30:34;13.65;;;6.05;;
10617;SDS011;5356;43.526;26.534;2023-11-19T04:33:00;13.35;;;6.78;;
10617;SDS011;5356;43.526;26.534;2023-11-19T04:35:26;11.65;;;6.45;;
10617;SDS011;5356;43.526;26.534;2023-11-19T04:37:51;12.80;;;6.03;;
10617;SDS011;5356;43.526;26.534;2023-11-19T04:40:17;12.00;;;6.07;;
10617;SDS011;5356;43.526;26.534;2023-11-19T04:42:47;9.27;;;5.05;;
10617;SDS011;5356;43.526;26.534;2023-11-19T04:45:13;7.57;;;4.68;;
10617;SDS011;5356;43.526;26.534;2023-11-19T04:47:38;11.52;;;6.13;;
10617;SDS011;5356;43.526;26.534;2023-11-19T04:50:04;10.05;;;5.05;;
10617;SDS011;5356;43.526;26.534;2023-11-19T04:52:30;9.25;;;5.40;;
10617;SDS011;5356;43.526;26.534;2023-11-19T04:54:55;8.20;;;5.03;;
10617;SDS011;5356;43.526;26.534;2023-11-19T04:57:21;10.07;;;6.28;;
10617;SDS011;5356;43.526;26.534;2023-11-19T04:59:46;10.80;;;6.30;;
10617;SDS011;5356;43.526;26.534;2023-11-19T05:02:12;9.35;;;5.38;;
10617;SDS011;5356;43.526;26.534;2023-11-19T05:04:41;10.25;;;6.07;;
10617;SDS011;5356;43.526;26.534;2023-11-19T05:07:08;8.80;;;5.50;;
10617;SDS011;5356;43.526;26.534;2023-11-19T05:09:33;7.95;;;4.85;;
10617;SDS011;5356;43.526;26.534;2023-11-19T05:11:59;10.82;;;5.05;;
10617;SDS011;5356;43.526;26.534;2023-11-19T05:14:24;8.30;;;4.40;;
10617;SDS011;5356;43.526;26.534;2023-11-19T05:16:50;9.18;;;5.03;;
10617;SDS011;5356;43.526;26.534;2023-11-19T05:19:15;7.82;;;4.47;;
10617;SDS011;5356;43.526;26.534;2023-11-19T05:21:43;10.93;;;6.13;;
10617;SDS011;5356;43.526;26.534;2023-11-19T05:24:09;15.25;;;9.38;;
10617;SDS011;5356;43.526;26.534;2023-11-19T05:26:34;18.83;;;14.38;;
10617;SDS011;5356;43.526;26.534;2023-11-19T05:29:00;12.77;;;7.70;;
10617;SDS011;5356;43.526;26.534;2023-11-19T05:31:25;11.57;;;6.93;;
10617;SDS011;5356;43.526;26.534;2023-11-19T05:33:51;17.42;;;10.48;;
10617;SDS011;5356;43.526;26.534;2023-11-19T05:36:17;19.98;;;9.57;;
10617;SDS011;5356;43.526;26.534;2023-11-19T05:38:42;12.30;;;6.57;;
10617;SDS011;5356;43.526;26.534;2023-11-19T05:41:09;9.93;;;5.78;;
10617;SDS011;5356;43.526;26.534;2023-11-19T05:43:35;11.95;;;7.53;;
10617;SDS011;5356;43.526;26.534;2023-11-19T05:46:00;11.75;;;6.57;;
10617;SDS011;5356;43.526;26.534;2023-11-19T05:48:28;15.30;;;11.57;;
10617;SDS011;5356;43.526;26.534;2023-11-19T05:50:54;14.35;;;9.77;;
10617;SDS011;5356;43.526;26.534;2023-11-19T05:53:20;14.50;;;8.82;;
10617;SDS011;5356;43.526;26.534;2023-11-19T05:55:45;16.20;;;9.73;;
10617;SDS011;5356;43.526;26.534;2023-11-19T05:58:20;26.58;;;18.92;;
10617;SDS011;5356;43.526;26.534;2023-11-19T06:00:55;23.35;;;16.17;;
10617;SDS011;5356;43.526;26.534;2023-11-19T06:03:21;17.55;;;10.07;;
10617;SDS011;5356;43.526;26.534;2023-11-19T06:05:47;16.23;;;8.50;;
10617;SDS011;5356;43.526;26.534;2023-11-19T06:08:13;13.80;;;8.77;;
10617;SDS011;5356;43.526;26.534;2023-11-19T06:10:43;17.75;;;8.60;;
10617;SDS011;5356;43.526;26.534;2023-11-19T06:13:11;14.27;;;9.20;;
10617;SDS011;5356;43.526;26.534;2023-11-19T06:15:40;16.42;;;9.43;;
10617;SDS011;5356;43.526;26.534;2023-11-19T06:18:06;12.95;;;7.40;;
10617;SDS011;5356;43.526;26.534;2023-11-19T06:20:33;11.00;;;6.32;;
10617;SDS011;5356;43.526;26.534;2023-11-19T06:22:59;10.65;;;5.25;;
10617;SDS011;5356;43.526;26.534;2023-11-19T06:25:25;8.40;;;5.13;;
10617;SDS011;5356;43.526;26.534;2023-11-19T06:27:51;11.10;;;5.45;;
10617;SDS011;5356;43.526;26.534;2023-11-19T06:30:17;10.70;;;5.93;;
10617;SDS011;5356;43.526;26.534;2023-11-19T06:32:43;10.82;;;5.20;;
10617;SDS011;5356;43.526;26.534;2023-11-19T06:35:08;10.13;;;6.70;;
10617;SDS011;5356;43.526;26.534;2023-11-19T06:37:35;10.88;;;6.13;;
10617;SDS011;5356;43.526;26.534;2023-11-19T06:40:01;12.77;;;6.97;;
10617;SDS011;5356;43.526;26.534;2023-11-19T06:42:27;10.80;;;6.18;;
10617;SDS011;5356;43.526;26.534;2023-11-19T06:44:54;10.63;;;5.85;;
10617;SDS011;5356;43.526;26.534;2023-11-19T06:47:19;19.55;;;13.93;;
10617;SDS011;5356;43.526;26.534;2023-11-19T06:49:45;17.05;;;7.88;;
10617;SDS011;5356;43.526;26.534;2023-11-19T06:52:10;18.48;;;8.48;;
10617;SDS011;5356;43.526;26.534;2023-11-19T06:54:36;13.23;;;6.75;;
10617;SDS011;5356;43.526;26.534;2023-11-19T06:57:03;10.95;;;5.95;;
10617;SDS011;5356;43.526;26.534;2023-11-19T06:59:30;11.73;;;6.10;;
10617;SDS011;5356;43.526;26.534;2023-11-19T07:01:56;15.73;;;11.70;;
10617;SDS011;5356;43.526;26.534;2023-11-19T07:04:21;16.35;;;11.38;;
10617;SDS011;5356;43.526;26.534;2023-11-19T07:06:47;13.27;;;7.20;;
10617;SDS011;5356;43.526;26.534;2023-11-19T07:09:14;10.32;;;6.57;;
10617;SDS011;5356;43.526;26.534;2023-11-19T07:11:40;11.80;;;7.65;;
10617;SDS011;5356;43.526;26.534;2023-11-19T07:14:07;13.80;;;6.57;;
10617;SDS011;5356;43.526;26.534;2023-11-19T07:16:33;11.52;;;6.63;;
10617;SDS011;5356;43.526;26.534;2023-11-19T07:18:59;12.43;;;6.55;;
10617;SDS011;5356;43.526;26.534;2023-11-19T07:21:26;10.60;;;5.53;;
10617;SDS011;5356;43.526;26.534;2023-11-19T07:23:53;10.35;;;5.32;;
10617;SDS011;5356;43.526;26.534;2023-11-19T07:26:19;11.75;;;5.63;;
10617;SDS011;5356;43.526;26.534;2023-11-19T07:28:45;13.35;;;6.22;;
10617;SDS011;5356;43.526;26.534;2023-11-19T07:31:10;12.32;;;5.95;;
10617;SDS011;5356;43.526;26.534;2023-11-19T07:33:36;27.58;;;11.18;;
10617;SDS011;5356;43.526;26.534;2023-11-19T07:36:02;28.92;;;10.77;;
10617;SDS011;5356;43.526;26.534;2023-11-19T07:38:27;41.08;;;17.42;;
10617;SDS011;5356;43.526;26.534;2023-11-19T07:40:53;14.45;;;7.72;;
10617;SDS011;5356;43.526;26.534;2023-11-19T07:43:19;10.85;;;5.00;;
10617;SDS011;5356;43.526;26.534;2023-11-19T07:45:44;9.80;;;5.50;;
10617;SDS011;5356;43.526;26.534;2023-11-19T07:48:11;14.30;;;6.43;;
10617;SDS011;5356;43.526;26.534;2023-11-19T07:50:38;10.48;;;5.85;;
10617;SDS011;5356;43.526;26.534;2023-11-19T07:53:07;9.77;;;5.82;;
10617;SDS011;5356;43.526;26.534;2023-11-19T07:55:33;10.32;;;5.65;;
10617;SDS011;5356;43.526;26.534;2023-11-19T07:57:59;10.15;;;5.63;;
10617;SDS011;5356;43.526;26.534;2023-11-19T08:00:24;11.48;;;5.03;;
10617;SDS011;5356;43.526;26.534;2023-11-19T08:02:50;12.55;;;5.50;;
10617;SDS011;5356;43.526;26.534;2023-11-19T08:05:15;10.40;;;6.03;;
10617;SDS011;5356;43.526;26.534;2023-11-19T08:07:41;14.13;;;6.85;;
10617;SDS011;5356;43.526;26.534;2023-11-19T08:10:06;12.35;;;6.68;;
10617;SDS011;5356;43.526;26.534;2023-11-19T08:12:35;11.70;;;5.93;;
10617;SDS011;5356;43.526;26.534;2023-11-19T08:15:02;11.48;;;6.88;;
10617;SDS011;5356;43.526;26.534;2023-11-19T08:17:29;11.43;;;6.35;;
10617;SDS011;5356;43.526;26.534;2023-11-19T08:19:55;10.23;;;5.85;;
10617;SDS011;5356;43.526;26.534;2023-11-19T08:22:20;11.20;;;5.97;;
10617;SDS011;5356;43.526;26.534;2023-11-19T08:24:47;18.15;;;8.20;;
10617;SDS011;5356;43.526;26.534;2023-11-19T08:27:14;8.98;;;5.68;;
10617;SDS011;5356;43.526;26.534;2023-11-19T08:29:40;8.00;;;4.75;;
10617;SDS011;5356;43.526;26.534;2023-11-19T08:32:05;10.05;;;5.05;;
10617;SDS011;5356;43.526;26.534;2023-11-19T08:34:32;14.75;;;5.60;;
10617;SDS011;5356;43.526;26.534;2023-11-19T08:36:57;15.20;;;9.25;;
10617;SDS011;5356;43.526;26.534;2023-11-19T08:39:22;10.20;;;5.70;;
10617;SDS011;5356;43.526;26.534;2023-11-19T08:41:48;10.82;;;5.72;;
10617;SDS011;5356;43.526;26.534;2023-11-19T08:44:14;10.27;;;5.88;;
10617;SDS011;5356;43.526;26.534;2023-11-19T08:46:46;9.13;;;4.43;;
10617;SDS011;5356;43.526;26.534;2023-11-19T08:49:12;10.77;;;5.40;;
10617;SDS011;5356;43.526;26.534;2023-11-19T08:51:38;12.65;;;6.07;;
10617;SDS011;5356;43.526;26.534;2023-11-19T08:54:03;8.13;;;4.88;;
10617;SDS011;5356;43.526;26.534;2023-11-19T08:56:31;8.80;;;4.90;;
10617;SDS011;5356;43.526;26.534;2023-11-19T08:58:59;13.52;;;10.90;;
10617;SDS011;5356;43.526;26.534;2023-11-19T09:01:24;10.32;;;6.05;;
10617;SDS011;5356;43.526;26.534;2023-11-19T09:03:49;9.52;;;5.85;;
10617;SDS011;5356;43.526;26.534;2023-11-19T09:06:15;10.73;;;5.38;;
10617;SDS011;5356;43.526;26.534;2023-11-19T09:08:42;13.02;;;6.03;;
10617;SDS011;5356;43.526;26.534;2023-11-19T09:11:08;10.13;;;5.88;;
10617;SDS011;5356;43.526;26.534;2023-11-19T09:13:36;9.02;;;5.75;;
10617;SDS011;5356;43.526;26.534;2023-11-19T09:16:02;12.52;;;6.18;;
10617;SDS011;5356;43.526;26.534;2023-11-19T09:18:31;12.48;;;6.53;;
10617;SDS011;5356;43.526;26.534;2023-11-19T09:20:57;12.18;;;5.93;;
10617;SDS011;5356;43.526;26.534;2023-11-19T09:23:23;11.75;;;6.72;;
10617;SDS011;5356;43.526;26.534;2023-11-19T09:25:54;15.65;;;6.90;;
10617;SDS011;5356;43.526;26.534;2023-11-19T09:28:19;10.35;;;5.40;;
10617;SDS011;5356;43.526;26.534;2023-11-19T09:30:45;7.68;;;4.50;;
10617;SDS011;5356;43.526;26.534;2023-11-19T09:33:10;15.82;;;7.18;;
10617;SDS011;5356;43.526;26.534;2023-11-19T09:35:36;9.77;;;6.10;;
10617;SDS011;5356;43.526;26.534;2023-11-19T09:38:01;25.55;;;8.65;;
10617;SDS011;5356;43.526;26.534;2023-11-19T09:40:27;43.38;;;15.95;;
10617;SDS011;5356;43.526;26.534;2023-11-19T09:42:53;17.67;;;7.63;;
10617;SDS011;5356;43.526;26.534;2023-11-19T09:45:20;8.35;;;5.55;;
10617;SDS011;5356;43.526;26.534;2023-11-19T09:47:46;4.55;;;3.47;;
10617;SDS011;5356;43.526;26.534;2023-11-19T09:50:21;3.80;;;3.05;;
10617;SDS011;5356;43.526;26.534;2023-11-19T09:52:47;5.25;;;3.70;;
10617;SDS011;5356;43.526;26.534;2023-11-19T09:55:13;7.57;;;3.33;;
10617;SDS011;5356;43.526;26.534;2023-11-19T09:57:39;4.55;;;3.35;;
10617;SDS011;5356;43.526;26.534;2023-11-19T10:00:07;5.90;;;3.38;;
10617;SDS011;5356;43.526;26.534;2023-11-19T10:02:35;4.13;;;3.08;;
10617;SDS011;5356;43.526;26.534;2023-11-19T10:05:02;3.35;;;2.88;;
10617;SDS011;5356;43.526;26.534;2023-11-19T10:07:31;4.80;;;2.72;;
10617;SDS011;5356;43.526;26.534;2023-11-19T10:10:00;5.35;;;2.92;;
10617;SDS011;5356;43.526;26.534;2023-11-19T10:12:29;3.10;;;2.80;;
10617;SDS011;5356;43.526;26.534;2023-11-19T10:14:58;6.00;;;4.90;;
10617;SDS011;5356;43.526;26.534;2023-11-19T10:17:42;5.03;;;3.90;;
10617;SDS011;5356;43.526;26.534;2023-11-19T10:20:08;4.88;;;3.17;;
10617;SDS011;5356;43.526;26.534;2023-11-19T10:22:36;4.85;;;3.72;;
10617;SDS011;5356;43.526;26.534;2023-11-19T10:25:02;4.53;;;3.22;;
10617;SDS011;5356;43.526;26.534;2023-11-19T10:27:28;5.28;;;4.60;;
10617;SDS011;5356;43.526;26.534;2023-11-19T10:29:53;5.82;;;3.55;;
10617;SDS011;5356;43.526;26.534;2023-11-19T10:32:19;5.68;;;3.58;;
10617;SDS011;5356;43.526;26.534;2023-11-19T10:34:44;4.93;;;3.75;;
10617;SDS011;5356;43.526;26.534;2023-11-19T10:37:26;6.35;;;5.05;;
10617;SDS011;5356;43.526;26.534;2023-11-19T10:42:20;4.75;;;3.90;;
10617;SDS011;5356;43.526;26.534;2023-11-19T10:44:46;7.80;;;4.60;;
10617;SDS011;5356;43.526;26.534;2023-11-19T10:47:12;10.48;;;4.38;;
10617;SDS011;5356;43.526;26.534;2023-11-19T10:49:39;6.20;;;4.40;;
10617;SDS011;5356;43.526;26.534;2023-11-19T10:52:05;5.82;;;4.30;;
10617;SDS011;5356;43.526;26.534;2023-11-19T10:54:34;4.95;;;3.38;;
10617;SDS011;5356;43.526;26.534;2023-11-19T10:56:59;4.38;;;3.22;;
10617;SDS011;5356;43.526;26.534;2023-11-19T10:59:30;5.68;;;3.90;;
10617;SDS011;5356;43.526;26.534;2023-11-19T11:01:59;6.73;;;3.47;;
10617;SDS011;5356;43.526;26.534;2023-11-19T11:04:30;5.90;;;3.35;;
10617;SDS011;5356;43.526;26.534;2023-11-19T11:06:58;4.40;;;3.58;;
10617;SDS011;5356;43.526;26.534;2023-11-19T11:09:26;5.20;;;3.55;;
10617;SDS011;5356;43.526;26.534;2023-11-19T11:11:53;9.88;;;4.22;;
10617;SDS011;5356;43.526;26.534;2023-11-19T11:14:22;5.82;;;4.00;;
10617;SDS011;5356;43.526;26.534;2023-11-19T11:16:50;5.00;;;3.70;;
10617;SDS011;5356;43.526;26.534;2023-11-19T11:19:16;4.10;;;3.30;;
10617;SDS011;5356;43.526;26.534;2023-11-19T11:21:44;6.60;;;4.00;;
10617;SDS011;5356;43.526;26.534;2023-11-19T11:29:44;7.38;;;4.28;;
10617;SDS011;5356;43.526;26.534;2023-11-19T11:35:08;5.60;;;3.72;;
10617;SDS011;5356;43.526;26.534;2023-11-19T11:37:44;6.78;;;4.15;;
10617;SDS011;5356;43.526;26.534;2023-11-19T11:40:16;6.88;;;4.63;;
10617;SDS011;5356;43.526;26.534;2023-11-19T11:42:46;13.90;;;6.60;;
10617;SDS011;5356;43.526;26.534;2023-11-19T11:45:15;7.55;;;4.60;;
10617;SDS011;5356;43.526;26.534;2023-11-19T11:50:16;9.05;;;5.20;;
10617;SDS011;5356;43.526;26.534;2023-11-19T11:53:27;7.93;;;4.03;;
10617;SDS011;5356;43.526;26.534;2023-11-19T11:58:18;7.88;;;5.05;;
10617;SDS011;5356;43.526;26.534;2023-11-19T12:00:44;5.80;;;4.60;;
10617;SDS011;5356;43.526;26.534;2023-11-19T12:03:12;5.70;;;5.03;;
10617;SDS011;5356;43.526;26.534;2023-11-19T12:05:41;7.82;;;4.40;;
10617;SDS011;5356;43.526;26.534;2023-11-19T12:08:10;6.63;;;3.75;;
10617;SDS011;5356;43.526;26.534;2023-11-19T12:10:47;7.50;;;4.47;;
10617;SDS011;5356;43.526;26.534;2023-11-19T12:13:17;7.38;;;4.30;;
10617;SDS011;5356;43.526;26.534;2023-11-19T12:18:28;5.03;;;4.10;;
10617;SDS011;5356;43.526;26.534;2023-11-19T12:21:00;5.22;;;3.70;;
10617;SDS011;5356;43.526;26.534;2023-11-19T12:23:31;5.78;;;4.05;;
10617;SDS011;5356;43.526;26.534;2023-11-19T12:26:00;6.82;;;4.85;;
10617;SDS011;5356;43.526;26.534;2023-11-19T12:28:28;5.93;;;4.25;;
10617;SDS011;5356;43.526;26.534;2023-11-19T12:30:54;5.75;;;4.03;;
10617;SDS011;5356;43.526;26.534;2023-11-19T12:33:33;7.00;;;4.55;;
10617;SDS011;5356;43.526;26.534;2023-11-19T12:36:00;6.60;;;4.63;;
10617;SDS011;5356;43.526;26.534;2023-11-19T12:38:30;7.38;;;4.30;;
10617;SDS011;5356;43.526;26.534;2023-11-19T12:41:03;8.68;;;4.95;;
10617;SDS011;5356;43.526;26.534;2023-11-19T12:43:30;6.97;;;3.60;;
10617;SDS011;5356;43.526;26.534;2023-11-19T12:45:55;9.23;;;4.57;;
10617;SDS011;5356;43.526;26.534;2023-11-19T12:48:21;5.97;;;3.72;;
10617;SDS011;5356;43.526;26.534;2023-11-19T12:50:55;8.63;;;4.60;;
10617;SDS011;5356;43.526;26.534;2023-11-19T12:53:26;6.13;;;3.83;;
10617;SDS011;5356;43.526;26.534;2023-11-19T12:56:12;8.23;;;3.55;;
10617;SDS011;5356;43.526;26.534;2023-11-19T12:58:38;4.45;;;3.28;;
10617;SDS011;5356;43.526;26.534;2023-11-19T13:01:06;3.88;;;2.90;;
10617;SDS011;5356;43.526;26.534;2023-11-19T13:03:38;6.47;;;4.15;;
10617;SDS011;5356;43.526;26.534;2023-11-19T13:06:04;6.30;;;3.92;;
10617;SDS011;5356;43.526;26.534;2023-11-19T13:08:51;5.90;;;4.05;;
10617;SDS011;5356;43.526;26.534;2023-11-19T13:11:32;6.00;;;4.38;;
10617;SDS011;5356;43.526;26.534;2023-11-19T13:14:02;4.28;;;3.05;;
10617;SDS011;5356;43.526;26.534;2023-11-19T13:16:36;4.15;;;2.83;;
10617;SDS011;5356;43.526;26.534;2023-11-19T13:19:03;6.70;;;3.25;;
10617;SDS011;5356;43.526;26.534;2023-11-19T13:21:30;3.63;;;2.90;;
10617;SDS011;5356;43.526;26.534;2023-11-19T13:23:56;5.28;;;4.05;;
10617;SDS011;5356;43.526;26.534;2023-11-19T13:26:22;6.90;;;3.70;;
10617;SDS011;5356;43.526;26.534;2023-11-19T13:28:48;5.00;;;3.10;;
10617;SDS011;5356;43.526;26.534;2023-11-19T13:31:14;5.25;;;3.30;;
10617;SDS011;5356;43.526;26.534;2023-11-19T13:33:39;5.05;;;3.25;;
10617;SDS011;5356;43.526;26.534;2023-11-19T13:36:06;3.92;;;2.50;;
10617;SDS011;5356;43.526;26.534;2023-11-19T13:38:35;4.32;;;2.63;;
10617;SDS011;5356;43.526;26.534;2023-11-19T13:41:02;5.13;;;3.28;;
10617;SDS011;5356;43.526;26.534;2023-11-19T13:43:31;6.05;;;3.53;;
10617;SDS011;5356;43.526;26.534;2023-11-19T13:45:57;6.93;;;4.80;;
10617;SDS011;5356;43.526;26.534;2023-11-19T13:48:25;6.35;;;4.30;;
10617;SDS011;5356;43.526;26.534;2023-11-19T13:50:52;7.70;;;4.18;;
10617;SDS011;5356;43.526;26.534;2023-11-19T13:53:18;6.93;;;3.88;;
10617;SDS011;5356;43.526;26.534;2023-11-19T13:55:44;10.32;;;5.45;;
10617;SDS011;5356;43.526;26.534;2023-11-19T13:58:09;16.35;;;6.95;;
10617;SDS011;5356;43.526;26.534;2023-11-19T14:00:35;11.93;;;5.43;;
10617;SDS011;5356;43.526;26.534;2023-11-19T14:03:01;7.68;;;4.60;;
10617;SDS011;5356;43.526;26.534;2023-11-19T14:05:28;9.57;;;4.88;;
10617;SDS011;5356;43.526;26.534;2023-11-19T14:07:54;3.90;;;2.97;;
10617;SDS011;5356;43.526;26.534;2023-11-19T14:10:21;7.72;;;5.13;;
10617;SDS011;5356;43.526;26.534;2023-11-19T14:12:47;17.50;;;7.35;;
10617;SDS011;5356;43.526;26.534;2023-11-19T14:15:13;10.38;;;6.13;;
10617;SDS011;5356;43.526;26.534;2023-11-19T14:17:39;6.90;;;5.00;;
10617;SDS011;5356;43.526;26.534;2023-11-19T14:20:05;10.02;;;4.72;;
10617;SDS011;5356;43.526;26.534;2023-11-19T14:22:42;9.10;;;4.15;;
10617;SDS011;5356;43.526;26.534;2023-11-19T14:25:09;6.70;;;4.20;;
10617;SDS011;5356;43.526;26.534;2023-11-19T14:27:39;12.18;;;5.78;;
10617;SDS011;5356;43.526;26.534;2023-11-19T14:30:06;10.23;;;6.20;;
10617;SDS011;5356;43.526;26.534;2023-11-19T14:32:33;9.82;;;5.45;;
10617;SDS011;5356;43.526;26.534;2023-11-19T14:34:58;9.88;;;5.22;;
10617;SDS011;5356;43.526;26.534;2023-11-19T14:37:24;9.98;;;5.30;;
10617;SDS011;5356;43.526;26.534;2023-11-19T14:39:49;10.07;;;6.32;;
10617;SDS011;5356;43.526;26.534;2023-11-19T14:42:16;11.05;;;5.85;;
10617;SDS011;5356;43.526;26.534;2023-11-19T14:44:42;12.52;;;5.93;;
10617;SDS011;5356;43.526;26.534;2023-11-19T14:47:07;7.65;;;5.25;;
10617;SDS011;5356;43.526;26.534;2023-11-19T14:49:36;12.35;;;6.38;;
10617;SDS011;5356;43.526;26.534;2023-11-19T14:52:04;10.43;;;4.97;;
10617;SDS011;5356;43.526;26.534;2023-11-19T14:54:30;12.02;;;5.97;;
10617;SDS011;5356;43.526;26.534;2023-11-19T14:56:56;10.75;;;6.07;;
10617;SDS011;5356;43.526;26.534;2023-11-19T14:59:21;10.30;;;6.32;;
10617;SDS011;5356;43.526;26.534;2023-11-19T15:01:47;12.45;;;7.78;;